sensor_id;sensor_type;location;lat;lon;timestamp;pressure;altitude;pressure_sealevel;temperature;humidity
45872;BME280;32333;55.844;-3.210;2023-02-26T00:01:51;100783.27;;;2.22;100.00
45872;BME280;32333;55.844;-3.210;2023-02-26T00:04:21;100775.72;;;1.85;100.00
45872;BME280;32333;55.844;-3.210;2023-02-26T00:06:50;100779.36;;;1.23;100.00
45872;BME280;32333;55.844;-3.210;2023-02-26T00:09:19;100783.70;;;1.37;100.00
45872;BME280;32333;55.844;-3.210;2023-02-26T00:11:47;100788.12;;;0.83;100.00
45872;BME280;32333;55.844;-3.210;2023-02-26T00:14:40;100791.14;;;1.92;100.00
45872;BME280;32333;55.844;-3.210;2023-02-26T00:17:29;100795.94;;;1.82;100.00
45872;BME280;32333;55.844;-3.210;2023-02-26T00:20:00;100796.28;;;1.20;100.00
45872;BME280;32333;55.844;-3.210;2023-02-26T00:22:32;100789.56;;;2.07;100.00
45872;BME280;32333;55.844;-3.210;2023-02-26T00:25:01;100791.12;;;2.44;100.00
45872;BME280;32333;55.844;-3.210;2023-02-26T00:27:30;100797.15;;;1.50;100.00
45872;BME280;32333;55.844;-3.210;2023-02-26T00:29:59;100797.61;;;1.52;100.00
45872;BME280;32333;55.844;-3.210;2023-02-26T00:32:28;100799.18;;;1.31;100.00
45872;BME280;32333;55.844;-3.210;2023-02-26T00:34:57;100802.37;;;1.49;100.00
45872;BME280;32333;55.844;-3.210;2023-02-26T00:37:37;100808.08;;;1.17;100.00
45872;BME280;32333;55.844;-3.210;2023-02-26T00:40:14;100811.03;;;1.18;100.00
45872;BME280;32333;55.844;-3.210;2023-02-26T00:44:37;100816.47;;;1.83;100.00
45872;BME280;32333;55.844;-3.210;2023-02-26T00:47:08;100818.24;;;2.40;100.00
45872;BME280;32333;55.844;-3.210;2023-02-26T00:49:48;100819.62;;;1.69;100.00
45872;BME280;32333;55.844;-3.210;2023-02-26T00:52:27;100823.00;;;2.80;100.00
45872;BME280;32333;55.844;-3.210;2023-02-26T00:54:58;100826.98;;;2.68;100.00
45872;BME280;32333;55.844;-3.210;2023-02-26T00:57:27;100837.67;;;1.52;100.00
45872;BME280;32333;55.844;-3.210;2023-02-26T00:59:55;100837.62;;;3.00;100.00
45872;BME280;32333;55.844;-3.210;2023-02-26T01:02:23;100842.11;;;2.00;100.00
45872;BME280;32333;55.844;-3.210;2023-02-26T01:04:52;100845.52;;;1.81;100.00
45872;BME280;32333;55.844;-3.210;2023-02-26T01:07:22;100845.06;;;1.88;100.00
45872;BME280;32333;55.844;-3.210;2023-02-26T01:09:51;100851.86;;;1.40;100.00
45872;BME280;32333;55.844;-3.210;2023-02-26T01:14:36;100854.43;;;1.85;100.00
45872;BME280;32333;55.844;-3.210;2023-02-26T01:17:15;100855.52;;;2.37;100.00
45872;BME280;32333;55.844;-3.210;2023-02-26T01:19:49;100853.59;;;0.98;100.00
45872;BME280;32333;55.844;-3.210;2023-02-26T01:22:22;100855.73;;;1.75;100.00
45872;BME280;32333;55.844;-3.210;2023-02-26T01:24:58;100855.10;;;1.76;100.00
45872;BME280;32333;55.844;-3.210;2023-02-26T01:27:31;100852.38;;;1.19;100.00
45872;BME280;32333;55.844;-3.210;2023-02-26T01:30:00;100861.75;;;1.44;100.00
45872;BME280;32333;55.844;-3.210;2023-02-26T01:32:42;100862.02;;;2.06;100.00
45872;BME280;32333;55.844;-3.210;2023-02-26T01:35:21;100861.84;;;2.10;100.00
45872;BME280;32333;55.844;-3.210;2023-02-26T01:38:03;100856.43;;;0.37;100.00
45872;BME280;32333;55.844;-3.210;2023-02-26T01:41:16;100854.47;;;0.40;100.00
45872;BME280;32333;55.844;-3.210;2023-02-26T01:44:41;100855.91;;;1.97;100.00
45872;BME280;32333;55.844;-3.210;2023-02-26T01:47:20;100856.83;;;1.84;100.00
45872;BME280;32333;55.844;-3.210;2023-02-26T01:49:53;100856.33;;;2.40;100.00
45872;BME280;32333;55.844;-3.210;2023-02-26T01:53:21;100864.86;;;2.59;100.00
45872;BME280;32333;55.844;-3.210;2023-02-26T01:55:53;100868.51;;;2.30;100.00
45872;BME280;32333;55.844;-3.210;2023-02-26T01:58:24;100870.43;;;2.12;100.00
45872;BME280;32333;55.844;-3.210;2023-02-26T02:00:54;100868.75;;;0.73;100.00
45872;BME280;32333;55.844;-3.210;2023-02-26T02:03:24;100868.89;;;1.44;100.00
45872;BME280;32333;55.844;-3.210;2023-02-26T02:05:55;100868.60;;;1.70;100.00
45872;BME280;32333;55.844;-3.210;2023-02-26T02:08:25;100870.42;;;1.82;100.00
45872;BME280;32333;55.844;-3.210;2023-02-26T02:10:53;100873.09;;;1.63;100.00
45872;BME280;32333;55.844;-3.210;2023-02-26T02:14:45;100865.89;;;3.01;100.00
45872;BME280;32333;55.844;-3.210;2023-02-26T02:17:26;100866.89;;;2.08;100.00
45872;BME280;32333;55.844;-3.210;2023-02-26T02:20:21;100870.41;;;2.08;100.00
45872;BME280;32333;55.844;-3.210;2023-02-26T02:23:03;100874.50;;;1.17;100.00
45872;BME280;32333;55.844;-3.210;2023-02-26T02:26:09;100873.99;;;1.22;100.00
45872;BME280;32333;55.844;-3.210;2023-02-26T02:28:53;100881.02;;;2.34;100.00
45872;BME280;32333;55.844;-3.210;2023-02-26T02:31:28;100878.60;;;1.91;100.00
45872;BME280;32333;55.844;-3.210;2023-02-26T02:34:01;100880.91;;;2.43;100.00
45872;BME280;32333;55.844;-3.210;2023-02-26T02:36:35;100877.30;;;2.44;100.00
45872;BME280;32333;55.844;-3.210;2023-02-26T02:39:09;100881.02;;;1.41;100.00
45872;BME280;32333;55.844;-3.210;2023-02-26T02:41:45;100880.60;;;0.97;100.00
45872;BME280;32333;55.844;-3.210;2023-02-26T02:44:38;100884.01;;;1.41;100.00
45872;BME280;32333;55.844;-3.210;2023-02-26T02:47:10;100885.17;;;1.86;100.00
45872;BME280;32333;55.844;-3.210;2023-02-26T02:49:44;100889.15;;;1.82;100.00
45872;BME280;32333;55.844;-3.210;2023-02-26T02:52:18;100892.67;;;1.84;100.00
45872;BME280;32333;55.844;-3.210;2023-02-26T02:54:50;100892.07;;;1.80;100.00
45872;BME280;32333;55.844;-3.210;2023-02-26T02:57:23;100898.23;;;1.54;100.00
45872;BME280;32333;55.844;-3.210;2023-02-26T02:59:58;100898.52;;;0.43;100.00
45872;BME280;32333;55.844;-3.210;2023-02-26T03:02:32;100896.33;;;2.59;100.00
45872;BME280;32333;55.844;-3.210;2023-02-26T03:05:03;100898.38;;;0.96;100.00
45872;BME280;32333;55.844;-3.210;2023-02-26T03:07:33;100901.24;;;2.13;100.00
45872;BME280;32333;55.844;-3.210;2023-02-26T03:10:07;100904.26;;;2.30;100.00
45872;BME280;32333;55.844;-3.210;2023-02-26T03:14:38;100907.32;;;2.69;100.00
45872;BME280;32333;55.844;-3.210;2023-02-26T03:17:18;100910.35;;;2.36;100.00
45872;BME280;32333;55.844;-3.210;2023-02-26T03:19:58;100911.40;;;1.67;100.00
45872;BME280;32333;55.844;-3.210;2023-02-26T03:22:37;100911.13;;;1.94;100.00
45872;BME280;32333;55.844;-3.210;2023-02-26T03:25:11;100910.79;;;2.80;100.00
45872;BME280;32333;55.844;-3.210;2023-02-26T03:27:46;100912.66;;;2.50;100.00
45872;BME280;32333;55.844;-3.210;2023-02-26T03:30:20;100918.29;;;2.01;100.00
45872;BME280;32333;55.844;-3.210;2023-02-26T03:32:57;100918.74;;;1.65;100.00
45872;BME280;32333;55.844;-3.210;2023-02-26T03:35:32;100921.39;;;1.77;100.00
45872;BME280;32333;55.844;-3.210;2023-02-26T03:38:06;100919.89;;;1.41;100.00
45872;BME280;32333;55.844;-3.210;2023-02-26T03:40:39;100926.40;;;1.87;100.00
45872;BME280;32333;55.844;-3.210;2023-02-26T03:44:43;100925.45;;;1.40;100.00
45872;BME280;32333;55.844;-3.210;2023-02-26T03:47:16;100931.62;;;1.07;100.00
45872;BME280;32333;55.844;-3.210;2023-02-26T03:49:55;100933.79;;;2.28;100.00
45872;BME280;32333;55.844;-3.210;2023-02-26T04:00:16;100931.96;;;1.78;100.00
45872;BME280;32333;55.844;-3.210;2023-02-26T04:02:50;100936.15;;;1.37;100.00
45872;BME280;32333;55.844;-3.210;2023-02-26T04:05:24;100938.44;;;1.03;100.00
45872;BME280;32333;55.844;-3.210;2023-02-26T04:07:52;100939.70;;;1.31;100.00
45872;BME280;32333;55.844;-3.210;2023-02-26T04:10:28;100938.11;;;1.35;100.00
45872;BME280;32333;55.844;-3.210;2023-02-26T04:14:36;100942.32;;;1.49;100.00
45872;BME280;32333;55.844;-3.210;2023-02-26T04:17:04;100944.11;;;1.98;100.00
45872;BME280;32333;55.844;-3.210;2023-02-26T04:19:32;100946.76;;;1.14;100.00
45872;BME280;32333;55.844;-3.210;2023-02-26T04:22:01;100951.31;;;0.97;100.00
45872;BME280;32333;55.844;-3.210;2023-02-26T04:24:29;100951.94;;;1.56;100.00
45872;BME280;32333;55.844;-3.210;2023-02-26T04:26:59;100956.80;;;1.21;100.00
45872;BME280;32333;55.844;-3.210;2023-02-26T04:29:27;100958.88;;;1.37;100.00
45872;BME280;32333;55.844;-3.210;2023-02-26T04:31:56;100964.05;;;1.61;100.00
45872;BME280;32333;55.844;-3.210;2023-02-26T04:34:25;100971.59;;;0.84;100.00
45872;BME280;32333;55.844;-3.210;2023-02-26T04:36:55;100974.41;;;1.10;100.00
45872;BME280;32333;55.844;-3.210;2023-02-26T04:39:24;100967.87;;;1.47;100.00
45872;BME280;32333;55.844;-3.210;2023-02-26T04:41:52;100967.60;;;0.00;100.00
45872;BME280;32333;55.844;-3.210;2023-02-26T04:44:36;100971.56;;;1.37;100.00
45872;BME280;32333;55.844;-3.210;2023-02-26T04:47:04;100972.41;;;2.01;100.00
45872;BME280;32333;55.844;-3.210;2023-02-26T04:49:32;100978.24;;;1.02;100.00
45872;BME280;32333;55.844;-3.210;2023-02-26T04:52:01;100984.97;;;1.24;100.00
45872;BME280;32333;55.844;-3.210;2023-02-26T04:54:31;100986.25;;;1.31;100.00
45872;BME280;32333;55.844;-3.210;2023-02-26T04:57:00;100990.85;;;1.46;100.00
45872;BME280;32333;55.844;-3.210;2023-02-26T04:59:28;100992.60;;;1.24;100.00
45872;BME280;32333;55.844;-3.210;2023-02-26T05:01:55;100994.91;;;0.35;100.00
45872;BME280;32333;55.844;-3.210;2023-02-26T05:04:24;101007.11;;;0.89;100.00
45872;BME280;32333;55.844;-3.210;2023-02-26T05:06:52;101007.65;;;2.20;100.00
45872;BME280;32333;55.844;-3.210;2023-02-26T05:09:23;101005.93;;;1.61;100.00
45872;BME280;32333;55.844;-3.210;2023-02-26T05:11:51;101008.47;;;1.88;100.00
45872;BME280;32333;55.844;-3.210;2023-02-26T05:14:36;101010.42;;;1.54;100.00
45872;BME280;32333;55.844;-3.210;2023-02-26T05:17:04;101015.24;;;1.86;100.00
45872;BME280;32333;55.844;-3.210;2023-02-26T05:19:34;101014.71;;;2.17;100.00
45872;BME280;32333;55.844;-3.210;2023-02-26T05:22:03;101014.82;;;2.25;100.00
45872;BME280;32333;55.844;-3.210;2023-02-26T05:24:31;101014.91;;;1.56;100.00
45872;BME280;32333;55.844;-3.210;2023-02-26T05:26:59;101011.60;;;2.45;100.00
45872;BME280;32333;55.844;-3.210;2023-02-26T05:29:26;101014.65;;;1.30;100.00
45872;BME280;32333;55.844;-3.210;2023-02-26T05:31:54;101013.33;;;1.61;100.00
45872;BME280;32333;55.844;-3.210;2023-02-26T05:34:22;101012.53;;;1.96;100.00
45872;BME280;32333;55.844;-3.210;2023-02-26T05:36:49;101013.07;;;1.74;100.00
45872;BME280;32333;55.844;-3.210;2023-02-26T05:39:17;101014.79;;;1.89;100.00
45872;BME280;32333;55.844;-3.210;2023-02-26T05:41:44;101016.89;;;1.88;100.00
45872;BME280;32333;55.844;-3.210;2023-02-26T05:44:35;101017.28;;;2.28;100.00
45872;BME280;32333;55.844;-3.210;2023-02-26T05:47:03;101020.22;;;2.11;100.00
45872;BME280;32333;55.844;-3.210;2023-02-26T05:49:30;101017.81;;;2.38;100.00
45872;BME280;32333;55.844;-3.210;2023-02-26T05:51:59;101020.45;;;2.95;100.00
45872;BME280;32333;55.844;-3.210;2023-02-26T05:54:26;101016.25;;;1.79;100.00
45872;BME280;32333;55.844;-3.210;2023-02-26T05:56:54;101022.14;;;1.11;100.00
45872;BME280;32333;55.844;-3.210;2023-02-26T05:59:23;101022.97;;;1.53;100.00
45872;BME280;32333;55.844;-3.210;2023-02-26T06:01:51;101022.98;;;1.86;100.00
45872;BME280;32333;55.844;-3.210;2023-02-26T06:04:19;101025.58;;;2.39;100.00
45872;BME280;32333;55.844;-3.210;2023-02-26T06:06:46;101034.26;;;0.95;100.00
45872;BME280;32333;55.844;-3.210;2023-02-26T06:09:14;101036.72;;;2.18;100.00
45872;BME280;32333;55.844;-3.210;2023-02-26T06:11:41;101038.60;;;1.93;100.00
45872;BME280;32333;55.844;-3.210;2023-02-26T06:14:36;101041.78;;;2.17;100.00
45872;BME280;32333;55.844;-3.210;2023-02-26T06:17:04;101043.75;;;1.97;100.00
45872;BME280;32333;55.844;-3.210;2023-02-26T06:19:32;101047.60;;;2.03;100.00
45872;BME280;32333;55.844;-3.210;2023-02-26T06:22:00;101047.46;;;1.91;100.00
45872;BME280;32333;55.844;-3.210;2023-02-26T06:24:28;101044.48;;;2.16;100.00
45872;BME280;32333;55.844;-3.210;2023-02-26T06:26:55;101049.18;;;0.87;100.00
45872;BME280;32333;55.844;-3.210;2023-02-26T06:29:23;101050.20;;;1.59;100.00
45872;BME280;32333;55.844;-3.210;2023-02-26T06:31:50;101045.42;;;1.85;100.00
45872;BME280;32333;55.844;-3.210;2023-02-26T06:34:18;101045.87;;;2.20;100.00
45872;BME280;32333;55.844;-3.210;2023-02-26T06:36:45;101041.62;;;2.55;100.00
45872;BME280;32333;55.844;-3.210;2023-02-26T06:39:14;101040.66;;;2.06;100.00
45872;BME280;32333;55.844;-3.210;2023-02-26T06:41:42;101043.86;;;1.78;100.00
45872;BME280;32333;55.844;-3.210;2023-02-26T06:44:36;101050.13;;;1.67;100.00
45872;BME280;32333;55.844;-3.210;2023-02-26T06:47:03;101054.38;;;1.84;100.00
45872;BME280;32333;55.844;-3.210;2023-02-26T06:49:31;101053.15;;;2.15;100.00
45872;BME280;32333;55.844;-3.210;2023-02-26T06:51:59;101059.67;;;1.26;100.00
45872;BME280;32333;55.844;-3.210;2023-02-26T06:54:27;101062.20;;;1.37;100.00
45872;BME280;32333;55.844;-3.210;2023-02-26T06:56:54;101061.18;;;1.25;100.00
45872;BME280;32333;55.844;-3.210;2023-02-26T06:59:22;101068.32;;;1.72;100.00
45872;BME280;32333;55.844;-3.210;2023-02-26T07:01:49;101073.41;;;1.38;100.00
45872;BME280;32333;55.844;-3.210;2023-02-26T07:04:17;101081.20;;;1.69;100.00
45872;BME280;32333;55.844;-3.210;2023-02-26T07:06:45;101085.29;;;1.54;100.00
45872;BME280;32333;55.844;-3.210;2023-02-26T07:09:13;101087.25;;;1.86;100.00
45872;BME280;32333;55.844;-3.210;2023-02-26T07:11:40;101082.57;;;1.29;100.00
45872;BME280;32333;55.844;-3.210;2023-02-26T07:14:36;101084.65;;;0.51;100.00
45872;BME280;32333;55.844;-3.210;2023-02-26T07:17:03;101091.06;;;0.38;100.00
45872;BME280;32333;55.844;-3.210;2023-02-26T07:19:32;101090.09;;;1.09;100.00
45872;BME280;32333;55.844;-3.210;2023-02-26T07:22:00;101094.33;;;0.85;100.00
45872;BME280;32333;55.844;-3.210;2023-02-26T07:25:09;101095.55;;;1.22;100.00
45872;BME280;32333;55.844;-3.210;2023-02-26T07:27:38;101103.46;;;1.81;100.00
45872;BME280;32333;55.844;-3.210;2023-02-26T07:30:13;101112.28;;;0.78;100.00
45872;BME280;32333;55.844;-3.210;2023-02-26T07:32:43;101119.64;;;0.41;100.00
45872;BME280;32333;55.844;-3.210;2023-02-26T07:35:18;101117.29;;;2.35;100.00
45872;BME280;32333;55.844;-3.210;2023-02-26T07:37:47;101122.87;;;2.37;100.00
45872;BME280;32333;55.844;-3.210;2023-02-26T07:40:16;101128.05;;;1.29;100.00
45872;BME280;32333;55.844;-3.210;2023-02-26T07:44:37;101137.98;;;1.57;100.00
45872;BME280;32333;55.844;-3.210;2023-02-26T07:47:05;101139.89;;;1.41;100.00
45872;BME280;32333;55.844;-3.210;2023-02-26T07:49:49;101140.21;;;1.64;100.00
45872;BME280;32333;55.844;-3.210;2023-02-26T07:52:17;101144.74;;;0.86;100.00
45872;BME280;32333;55.844;-3.210;2023-02-26T07:54:45;101146.52;;;1.60;100.00
45872;BME280;32333;55.844;-3.210;2023-02-26T07:57:13;101147.56;;;1.73;100.00
45872;BME280;32333;55.844;-3.210;2023-02-26T07:59:41;101142.47;;;1.73;100.00
45872;BME280;32333;55.844;-3.210;2023-02-26T08:02:10;101144.80;;;1.52;100.00
45872;BME280;32333;55.844;-3.210;2023-02-26T08:04:40;101149.00;;;2.03;100.00
45872;BME280;32333;55.844;-3.210;2023-02-26T08:07:09;101154.81;;;2.00;100.00
45872;BME280;32333;55.844;-3.210;2023-02-26T08:09:42;101155.65;;;2.32;100.00
45872;BME280;32333;55.844;-3.210;2023-02-26T08:14:37;101158.09;;;2.29;100.00
45872;BME280;32333;55.844;-3.210;2023-02-26T08:17:08;101155.25;;;2.38;100.00
45872;BME280;32333;55.844;-3.210;2023-02-26T08:19:38;101154.27;;;2.09;100.00
45872;BME280;32333;55.844;-3.210;2023-02-26T08:22:06;101159.29;;;1.78;100.00
45872;BME280;32333;55.844;-3.210;2023-02-26T08:24:35;101165.84;;;1.99;100.00
45872;BME280;32333;55.844;-3.210;2023-02-26T08:27:03;101169.22;;;1.72;100.00
45872;BME280;32333;55.844;-3.210;2023-02-26T08:29:30;101169.62;;;1.89;100.00
45872;BME280;32333;55.844;-3.210;2023-02-26T08:31:59;101166.52;;;2.74;100.00
45872;BME280;32333;55.844;-3.210;2023-02-26T08:34:27;101167.07;;;2.67;100.00
45872;BME280;32333;55.844;-3.210;2023-02-26T08:36:57;101174.66;;;2.66;100.00
45872;BME280;32333;55.844;-3.210;2023-02-26T08:39:25;101176.50;;;2.69;100.00
45872;BME280;32333;55.844;-3.210;2023-02-26T08:44:36;101188.16;;;1.54;100.00
45872;BME280;32333;55.844;-3.210;2023-02-26T08:47:05;101194.28;;;2.11;100.00
45872;BME280;32333;55.844;-3.210;2023-02-26T08:49:33;101195.07;;;2.51;100.00
45872;BME280;32333;55.844;-3.210;2023-02-26T08:52:00;101199.61;;;2.58;100.00
45872;BME280;32333;55.844;-3.210;2023-02-26T08:55:10;101207.49;;;4.42;100.00
45872;BME280;32333;55.844;-3.210;2023-02-26T08:57:40;101212.24;;;2.74;100.00
45872;BME280;32333;55.844;-3.210;2023-02-26T09:00:09;101214.85;;;2.80;100.00
45872;BME280;32333;55.844;-3.210;2023-02-26T09:02:38;101215.23;;;2.60;100.00
45872;BME280;32333;55.844;-3.210;2023-02-26T09:05:06;101212.44;;;2.82;100.00
45872;BME280;32333;55.844;-3.210;2023-02-26T09:07:35;101216.34;;;4.36;100.00
45872;BME280;32333;55.844;-3.210;2023-02-26T09:10:03;101216.45;;;2.59;100.00
45872;BME280;32333;55.844;-3.210;2023-02-26T09:14:36;101219.87;;;3.35;100.00
45872;BME280;32333;55.844;-3.210;2023-02-26T09:17:03;101218.92;;;2.40;100.00
45872;BME280;32333;55.844;-3.210;2023-02-26T09:19:31;101216.52;;;3.40;100.00
45872;BME280;32333;55.844;-3.210;2023-02-26T09:21:59;101218.82;;;3.34;100.00
45872;BME280;32333;55.844;-3.210;2023-02-26T09:24:27;101222.70;;;3.19;100.00
45872;BME280;32333;55.844;-3.210;2023-02-26T09:26:55;101228.31;;;3.09;100.00
45872;BME280;32333;55.844;-3.210;2023-02-26T09:29:25;101233.34;;;3.82;100.00
45872;BME280;32333;55.844;-3.210;2023-02-26T09:31:53;101230.56;;;4.04;100.00
45872;BME280;32333;55.844;-3.210;2023-02-26T09:34:20;101227.57;;;3.32;100.00
45872;BME280;32333;55.844;-3.210;2023-02-26T09:36:51;101230.55;;;2.63;100.00
45872;BME280;32333;55.844;-3.210;2023-02-26T09:39:18;101230.32;;;3.10;100.00
45872;BME280;32333;55.844;-3.210;2023-02-26T09:41:51;101231.31;;;3.19;100.00
45872;BME280;32333;55.844;-3.210;2023-02-26T09:44:43;101238.27;;;2.90;100.00
45872;BME280;32333;55.844;-3.210;2023-02-26T09:47:14;101241.73;;;2.37;100.00
45872;BME280;32333;55.844;-3.210;2023-02-26T09:49:50;101242.21;;;3.08;100.00
45872;BME280;32333;55.844;-3.210;2023-02-26T09:52:24;101249.62;;;3.46;100.00
45872;BME280;32333;55.844;-3.210;2023-02-26T09:54:57;101251.40;;;2.97;100.00
45872;BME280;32333;55.844;-3.210;2023-02-26T09:57:30;101253.84;;;1.72;100.00
45872;BME280;32333;55.844;-3.210;2023-02-26T09:59:58;101261.31;;;1.26;100.00
45872;BME280;32333;55.844;-3.210;2023-02-26T10:02:37;101257.74;;;2.50;100.00
45872;BME280;32333;55.844;-3.210;2023-02-26T10:05:18;101260.88;;;0.92;100.00
45872;BME280;32333;55.844;-3.210;2023-02-26T10:07:52;101263.72;;;0.87;100.00
45872;BME280;32333;55.844;-3.210;2023-02-26T10:10:29;101267.44;;;0.72;100.00
45872;BME280;32333;55.844;-3.210;2023-02-26T10:14:40;101269.90;;;1.61;100.00
45872;BME280;32333;55.844;-3.210;2023-02-26T10:17:17;101270.72;;;2.71;100.00
45872;BME280;32333;55.844;-3.210;2023-02-26T10:19:50;101267.09;;;2.25;100.00
45872;BME280;32333;55.844;-3.210;2023-02-26T10:22:24;101272.86;;;2.96;100.00
45872;BME280;32333;55.844;-3.210;2023-02-26T10:24:59;101269.90;;;1.92;100.00
45872;BME280;32333;55.844;-3.210;2023-02-26T10:27:41;101275.45;;;3.07;100.00
45872;BME280;32333;55.844;-3.210;2023-02-26T10:30:25;101273.00;;;3.37;100.00
45872;BME280;32333;55.844;-3.210;2023-02-26T10:33:05;101274.64;;;2.35;100.00
45872;BME280;32333;55.844;-3.210;2023-02-26T10:35:39;101277.96;;;3.73;100.00
45872;BME280;32333;55.844;-3.210;2023-02-26T10:38:11;101279.47;;;3.34;100.00
45872;BME280;32333;55.844;-3.210;2023-02-26T10:40:46;101285.96;;;3.51;100.00
45872;BME280;32333;55.844;-3.210;2023-02-26T10:44:40;101288.16;;;2.38;100.00
45872;BME280;32333;55.844;-3.210;2023-02-26T10:47:17;101290.76;;;2.66;100.00
45872;BME280;32333;55.844;-3.210;2023-02-26T10:49:53;101293.92;;;1.59;100.00
45872;BME280;32333;55.844;-3.210;2023-02-26T10:52:25;101294.67;;;1.69;100.00
45872;BME280;32333;55.844;-3.210;2023-02-26T10:55:05;101295.03;;;2.87;100.00
45872;BME280;32333;55.844;-3.210;2023-02-26T10:57:35;101291.76;;;2.94;100.00
45872;BME280;32333;55.844;-3.210;2023-02-26T11:00:15;101286.16;;;2.12;100.00
45872;BME280;32333;55.844;-3.210;2023-02-26T11:02:46;101289.76;;;3.26;100.00
45872;BME280;32333;55.844;-3.210;2023-02-26T11:05:19;101289.73;;;2.35;100.00
45872;BME280;32333;55.844;-3.210;2023-02-26T11:07:59;101291.45;;;3.30;100.00
45872;BME280;32333;55.844;-3.210;2023-02-26T11:10:38;101296.57;;;2.87;100.00
45872;BME280;32333;55.844;-3.210;2023-02-26T11:14:36;101297.40;;;3.16;100.00
45872;BME280;32333;55.844;-3.210;2023-02-26T11:17:09;101293.01;;;3.65;100.00
45872;BME280;32333;55.844;-3.210;2023-02-26T11:19:40;101296.81;;;4.66;100.00
45872;BME280;32333;55.844;-3.210;2023-02-26T11:22:13;101288.07;;;3.87;100.00
45872;BME280;32333;55.844;-3.210;2023-02-26T11:24:42;101291.14;;;4.35;100.00
45872;BME280;32333;55.844;-3.210;2023-02-26T11:27:15;101286.00;;;3.86;100.00
45872;BME280;32333;55.844;-3.210;2023-02-26T11:29:47;101286.20;;;3.74;100.00
45872;BME280;32333;55.844;-3.210;2023-02-26T11:32:16;101289.03;;;3.65;100.00
45872;BME280;32333;55.844;-3.210;2023-02-26T11:34:46;101288.57;;;2.66;100.00
45872;BME280;32333;55.844;-3.210;2023-02-26T11:37:17;101285.70;;;2.58;100.00
45872;BME280;32333;55.844;-3.210;2023-02-26T11:39:46;101289.66;;;2.94;100.00
45872;BME280;32333;55.844;-3.210;2023-02-26T11:44:38;101292.86;;;3.66;100.00
45872;BME280;32333;55.844;-3.210;2023-02-26T11:47:10;101292.89;;;2.39;100.00
45872;BME280;32333;55.844;-3.210;2023-02-26T11:49:42;101297.95;;;2.78;100.00
45872;BME280;32333;55.844;-3.210;2023-02-26T11:52:18;101299.21;;;2.89;100.00
45872;BME280;32333;55.844;-3.210;2023-02-26T11:54:49;101296.99;;;1.89;100.00
45872;BME280;32333;55.844;-3.210;2023-02-26T11:57:22;101298.27;;;2.56;100.00
45872;BME280;32333;55.844;-3.210;2023-02-26T11:59:55;101300.37;;;1.97;100.00
45872;BME280;32333;55.844;-3.210;2023-02-26T12:02:30;101300.27;;;1.76;100.00
45872;BME280;32333;55.844;-3.210;2023-02-26T12:05:00;101298.83;;;2.05;100.00
45872;BME280;32333;55.844;-3.210;2023-02-26T12:07:29;101299.66;;;2.50;100.00
45872;BME280;32333;55.844;-3.210;2023-02-26T12:09:57;101296.86;;;3.14;100.00
45872;BME280;32333;55.844;-3.210;2023-02-26T12:14:44;101290.79;;;3.79;100.00
45872;BME280;32333;55.844;-3.210;2023-02-26T12:17:24;101295.14;;;2.69;100.00
45872;BME280;32333;55.844;-3.210;2023-02-26T12:20:02;101293.66;;;1.98;100.00
45872;BME280;32333;55.844;-3.210;2023-02-26T12:22:50;101299.47;;;3.12;100.00
45872;BME280;32333;55.844;-3.210;2023-02-26T12:25:26;101299.77;;;3.55;100.00
45872;BME280;32333;55.844;-3.210;2023-02-26T12:28:09;101305.70;;;4.51;100.00
45872;BME280;32333;55.844;-3.210;2023-02-26T12:31:04;101310.91;;;4.05;100.00
45872;BME280;32333;55.844;-3.210;2023-02-26T12:33:45;101313.35;;;4.83;100.00
45872;BME280;32333;55.844;-3.210;2023-02-26T12:36:29;101315.12;;;5.00;100.00
45872;BME280;32333;55.844;-3.210;2023-02-26T12:39:12;101310.81;;;2.96;100.00
45872;BME280;32333;55.844;-3.210;2023-02-26T12:41:53;101314.83;;;2.73;100.00
45872;BME280;32333;55.844;-3.210;2023-02-26T12:45:22;101308.02;;;4.84;100.00
45872;BME280;32333;55.844;-3.210;2023-02-26T12:48:04;101308.56;;;3.43;100.00
45872;BME280;32333;55.844;-3.210;2023-02-26T12:50:42;101310.57;;;3.78;100.00
45872;BME280;32333;55.844;-3.210;2023-02-26T12:53:40;101312.70;;;2.98;100.00
45872;BME280;32333;55.844;-3.210;2023-02-26T12:56:27;101308.91;;;3.53;100.00
45872;BME280;32333;55.844;-3.210;2023-02-26T12:59:12;101309.80;;;3.32;100.00
45872;BME280;32333;55.844;-3.210;2023-02-26T13:01:50;101305.77;;;3.72;100.00
45872;BME280;32333;55.844;-3.210;2023-02-26T13:05:10;101312.44;;;4.81;100.00
45872;BME280;32333;55.844;-3.210;2023-02-26T13:07:50;101311.59;;;3.49;100.00
45872;BME280;32333;55.844;-3.210;2023-02-26T13:10:26;101312.74;;;3.24;100.00
45872;BME280;32333;55.844;-3.210;2023-02-26T13:14:45;101311.87;;;3.01;100.00
45872;BME280;32333;55.844;-3.210;2023-02-26T13:17:23;101311.38;;;2.51;100.00
45872;BME280;32333;55.844;-3.210;2023-02-26T13:19:57;101312.04;;;3.74;100.00
45872;BME280;32333;55.844;-3.210;2023-02-26T13:22:29;101310.87;;;3.92;100.00
45872;BME280;32333;55.844;-3.210;2023-02-26T13:25:01;101310.42;;;2.63;100.00
45872;BME280;32333;55.844;-3.210;2023-02-26T13:27:33;101308.82;;;3.89;100.00
45872;BME280;32333;55.844;-3.210;2023-02-26T13:30:13;101310.45;;;3.38;100.00
45872;BME280;32333;55.844;-3.210;2023-02-26T13:32:43;101311.60;;;3.27;100.00
45872;BME280;32333;55.844;-3.210;2023-02-26T13:35:20;101309.99;;;4.08;100.00
45872;BME280;32333;55.844;-3.210;2023-02-26T13:37:51;101299.31;;;5.92;100.00
45872;BME280;32333;55.844;-3.210;2023-02-26T13:40:59;101297.74;;;5.54;99.48
45872;BME280;32333;55.844;-3.210;2023-02-26T13:44:40;101295.85;;;4.67;100.00
45872;BME280;32333;55.844;-3.210;2023-02-26T13:47:28;101292.78;;;3.06;100.00
45872;BME280;32333;55.844;-3.210;2023-02-26T13:50:11;101293.49;;;4.09;100.00
45872;BME280;32333;55.844;-3.210;2023-02-26T13:52:53;101291.73;;;2.96;100.00
45872;BME280;32333;55.844;-3.210;2023-02-26T13:55:56;101292.06;;;3.62;100.00